Time;durP1;ratioP1;P1;durP2;ratioP2;P2;SDS_P1;SDS_P2;PMS_P1;PMS_P2;Temp;Humidity;BMP_temperature;BMP_pressure;BME280_temperature;BME280_humidity;BME280_pressure;Samples;Min_cycle;Max_cycle;Signal;HPM_P1;HPM_P2
2022/10/29 00:02:21;;;;;;;21.67;12.48;;;;;;;9.32;68.01;101299.50;5086874;28;20028;-26
2022/10/29 00:04:47;;;;;;;23.10;13.57;;;;;;;9.17;68.36;101275.47;5088463;28;20105;-27
2022/10/29 00:07:12;;;;;;;22.02;14.02;;;;;;;9.29;68.01;101277.72;5088671;28;20024;-27
2022/10/29 00:09:38;;;;;;;21.88;13.48;;;;;;;9.19;68.75;101300.09;5087348;28;20032;-27
2022/10/29 00:12:03;;;;;;;19.80;12.13;;;;;;;9.28;67.91;101278.75;5088723;28;20562;-26
2022/10/29 00:14:29;;;;;;;22.45;13.00;;;;;;;9.56;67.42;101279.78;5088480;28;20032;-26
2022/10/29 00:16:55;;;;;;;20.52;11.32;;;;;;;9.67;66.84;101291.81;5088363;28;20027;-29
2022/10/29 00:19:21;;;;;;;17.90;11.35;;;;;;;9.61;66.22;101271.25;5088458;28;20032;-26
2022/10/29 00:21:49;;;;;;;19.15;11.10;;;;;;;9.52;67.15;101288.31;5088105;28;20115;-28
2022/10/29 00:24:15;;;;;;;17.92;10.40;;;;;;;9.42;67.50;101283.25;5088036;28;20024;-30
2022/10/29 00:26:40;;;;;;;23.52;12.77;;;;;;;8.73;68.71;101262.88;5070084;28;20039;-34
2022/10/29 00:29:06;;;;;;;19.38;11.80;;;;;;;8.32;69.42;101264.94;5088333;28;20028;-30
2022/10/29 00:31:31;;;;;;;26.08;13.70;;;;;;;8.69;68.67;101282.03;5086764;28;20020;-29
2022/10/29 00:33:57;;;;;;;26.98;15.50;;;;;;;8.61;68.95;101290.88;5087968;28;20549;-26
2022/10/29 00:36:28;;;;;;;26.40;13.43;;;;;;;8.46;69.69;101282.81;5087693;28;20027;-27
2022/10/29 00:38:55;;;;;;;30.85;14.20;;;;;;;8.49;69.26;101279.81;5088180;28;20055;-26
2022/10/29 00:41:27;;;;;;;24.73;14.17;;;;;;;8.35;68.97;101286.66;5088186;28;20035;-30
2022/10/29 00:44:11;;;;;;;27.55;15.30;;;;;;;8.41;68.91;101277.19;5088094;28;20026;-26
2022/10/29 00:46:39;;;;;;;25.58;14.20;;;;;;;8.37;69.43;101289.97;5087763;28;20034;-26
2022/10/29 00:49:04;;;;;;;28.08;15.65;;;;;;;8.60;68.29;101257.28;5088100;28;20024;-26
2022/10/29 00:51:31;;;;;;;28.45;15.23;;;;;;;8.13;70.59;101260.84;5087978;28;20024;-27
2022/10/29 00:54:09;;;;;;;26.55;14.38;;;;;;;8.59;69.32;101276.94;5069565;28;20039;-27
2022/10/29 00:56:42;;;;;;;27.67;13.67;;;;;;;8.80;68.70;101274.44;5087758;28;20032;-27
2022/10/29 00:59:08;;;;;;;22.00;13.10;;;;;;;8.76;69.37;101267.81;5087626;28;20359;-26
2022/10/29 01:01:35;;;;;;;26.80;13.73;;;;;;;8.79;69.66;101277.31;5069594;28;20036;-31
2022/10/29 01:04:02;;;;;;;25.40;13.90;;;;;;;8.72;69.14;101271.84;5069442;28;20063;-30
2022/10/29 01:06:29;;;;;;;22.95;13.88;;;;;;;9.02;69.40;101269.31;5069091;28;20059;-26
2022/10/29 01:08:55;;;;;;;24.70;13.50;;;;;;;8.38;69.53;101275.69;5087564;28;20103;-25
2022/10/29 01:11:47;;;;;;;23.65;13.60;;;;;;;8.20;69.55;101283.91;5087545;28;20158;-27
2022/10/29 01:14:29;;;;;;;23.00;14.77;;;;;;;8.31;69.10;101280.03;5087268;28;20032;-26
2022/10/29 01:17:14;;;;;;;22.02;13.15;;;;;;;8.27;70.35;101273.41;5087738;28;20024;-25
2022/10/29 01:19:57;;;;;;;25.17;12.70;;;;;;;8.45;70.52;101271.34;5086070;28;20451;-29
2022/10/29 01:22:34;;;;;;;24.23;12.95;;;;;;;8.76;69.74;101262.50;5087087;28;20070;-27
2022/10/29 01:25:10;;;;;;;21.65;13.82;;;;;;;8.90;70.37;101268.88;5086182;28;20032;-27
2022/10/29 01:27:48;;;;;;;24.83;12.93;;;;;;;8.73;71.40;101268.19;5087132;28;20470;-30
2022/10/29 01:30:16;;;;;;;24.65;13.63;;;;;;;8.82;70.73;101272.44;5087344;28;20034;-26
2022/10/29 01:33:10;;;;;;;;;;;;;;;9.03;69.65;101260.28;5087346;28;20039;-25
2022/10/29 01:36:07;;;;;;;22.00;12.00;;;;;;;9.11;69.65;101252.25;4981199;28;19914;-29
2022/10/29 01:38:39;;;;;;;20.17;11.93;;;;;;;8.53;70.74;101246.53;5087208;28;20055;-28
2022/10/29 01:41:05;;;;;;;26.50;13.95;;;;;;;8.76;71.10;101248.38;5087243;28;20153;-25
2022/10/29 01:43:39;;;;;;;20.98;12.05;;;;;;;8.63;70.51;101251.63;5069078;28;20197;-27
2022/10/29 01:46:29;;;;;;;21.98;11.02;;;;;;;9.07;69.58;101252.78;5087239;28;20055;-27
2022/10/29 01:49:01;;;;;;;19.13;10.82;;;;;;;8.95;70.20;101247.06;5087181;28;20028;-26
2022/10/29 01:51:31;;;;;;;18.13;10.20;;;;;;;8.84;70.24;101243.81;5068390;28;20410;-27
2022/10/29 01:53:59;;;;;;;15.95;9.32;;;;;;;8.56;70.76;101224.94;5087512;28;20039;-28
2022/10/29 01:56:24;;;;;;;16.17;10.23;;;;;;;8.56;71.20;101250.69;5068738;28;20465;-27
2022/10/29 01:58:55;;;;;;;14.93;8.98;;;;;;;8.09;73.05;101222.34;5085515;28;20097;-26
2022/10/29 02:01:50;;;;;;;14.57;9.35;;;;;;;7.92;74.65;101233.06;5087073;28;20035;-26
2022/10/29 02:04:18;;;;;;;18.42;9.40;;;;;;;8.19;74.48;101260.16;5086848;28;20146;-26
2022/10/29 02:06:53;;;;;;;15.70;9.90;;;;;;;8.01;74.38;101224.06;5087101;28;20147;-26
2022/10/29 02:10:01;;;;;;;18.48;9.60;;;;;;;8.32;73.62;101244.50;5068787;28;20073;-27
2022/10/29 02:12:37;;;;;;;;;;;;;;;8.52;73.36;101238.75;5004674;28;20117;-27
2022/10/29 02:15:06;;;;;;;15.25;9.57;;;;;;;8.13;74.97;101229.81;5075299;28;19918;-26
2022/10/29 02:17:32;;;;;;;;;;;;;;;8.51;74.38;101239.75;5087477;28;20075;-28
2022/10/29 02:19:57;;;;;;;23.73;10.27;;;;;;;8.70;73.36;101231.28;5086829;28;20430;-28
2022/10/29 02:22:22;;;;;;;16.42;9.30;;;;;;;8.77;73.09;101237.56;5086603;28;20028;-26
2022/10/29 02:24:48;;;;;;;18.10;10.13;;;;;;;8.84;73.17;101230.53;5087477;28;20020;-27
2022/10/29 02:27:13;;;;;;;22.05;11.20;;;;;;;8.90;72.86;101244.13;5089026;28;20035;-30
2022/10/29 02:29:39;;;;;;;23.10;11.10;;;;;;;9.22;71.83;101243.84;5090407;28;20024;-27
2022/10/29 02:32:05;;;;;;;19.42;10.63;;;;;;;9.19;71.37;101235.38;5072125;28;20036;-29
2022/10/29 02:34:30;;;;;;;18.90;11.05;;;;;;;9.16;71.86;101241.91;5090148;28;20024;-25
2022/10/29 02:36:55;;;;;;;19.55;9.50;;;;;;;9.06;71.57;101212.06;5090482;28;20119;-27
2022/10/29 02:39:21;;;;;;;17.92;9.45;;;;;;;9.19;70.73;101214.94;5071749;28;20031;-26
2022/10/29 02:41:46;;;;;;;18.58;9.63;;;;;;;9.15;71.07;101213.63;5071998;28;20103;-27
2022/10/29 02:44:12;;;;;;;17.30;9.13;;;;;;;9.26;70.67;101228.34;5090167;28;20122;-27
2022/10/29 02:46:40;;;;;;;16.02;10.35;;;;;;;9.08;71.39;101218.03;5089839;28;20024;-29
2022/10/29 02:49:06;;;;;;;17.88;8.55;;;;;;;9.06;71.29;101228.03;5089895;28;20024;-26
2022/10/29 02:51:32;;;;;;;14.38;8.20;;;;;;;9.08;70.54;101234.00;5071499;28;20717;-27
2022/10/29 02:53:57;;;;;;;16.10;8.25;;;;;;;9.02;69.88;101224.06;5071571;28;20070;-26
2022/10/29 02:56:23;;;;;;;14.07;7.82;;;;;;;8.91;69.88;101235.97;5089910;28;20024;-27
2022/10/29 02:58:48;;;;;;;13.25;7.82;;;;;;;8.68;70.14;101217.34;5088478;28;20055;-26
2022/10/29 03:01:14;;;;;;;13.57;8.05;;;;;;;8.50;71.29;101241.59;5090269;28;20438;-27
2022/10/29 03:03:39;;;;;;;13.13;7.72;;;;;;;8.04;73.16;101234.31;5089626;28;20063;-31
2022/10/29 03:06:11;;;;;;;11.93;7.93;;;;;;;7.95;73.50;101235.38;5088202;28;20058;-29
2022/10/29 03:08:36;;;;;;;13.30;8.07;;;;;;;7.91;74.04;101231.41;5089269;28;20457;-27
2022/10/29 03:11:02;;;;;;;15.50;8.73;;;;;;;8.13;72.72;101235.13;5089703;28;20491;-27
2022/10/29 03:13:27;;;;;;;12.88;7.75;;;;;;;8.18;70.97;101219.47;5089566;28;20032;-30
2022/10/29 03:15:52;;;;;;;13.55;8.02;;;;;;;8.19;70.87;101220.31;5089625;28;20111;-29
2022/10/29 03:18:18;;;;;;;17.20;7.97;;;;;;;8.41;70.38;101226.69;5089298;28;20085;-30
2022/10/29 03:20:44;;;;;;;11.35;7.40;;;;;;;8.16;71.38;101224.16;5089386;28;20028;-30
2022/10/29 03:23:09;;;;;;;14.00;7.60;;;;;;;8.40;70.17;101220.53;5089232;28;20131;-26
2022/10/29 03:25:35;;;;;;;17.10;8.43;;;;;;;8.23;71.58;101232.25;5071007;28;20032;-30
2022/10/29 03:28:00;;;;;;;14.60;7.90;;;;;;;7.89;71.86;101212.16;5089551;28;20073;-26
2022/10/29 03:30:26;;;;;;;14.38;8.10;;;;;;;7.94;71.90;101217.78;5089048;28;20062;-28
2022/10/29 03:32:51;;;;;;;14.90;7.78;;;;;;;8.04;71.91;101231.66;5089354;28;20030;-30
2022/10/29 03:35:17;;;;;;;15.95;7.05;;;;;;;8.23;70.92;101229.59;5069942;28;20024;-27
2022/10/29 03:37:42;;;;;;;16.88;10.02;;;;;;;8.02;71.43;101227.53;5087198;28;20526;-28
2022/10/29 03:40:08;;;;;;;14.70;8.07;;;;;;;7.76;71.80;101211.88;5089293;28;20036;-26
2022/10/29 03:42:34;;;;;;;11.80;7.68;;;;;;;8.02;70.72;101200.97;5089227;28;20030;-28
2022/10/29 03:45:00;;;;;;;12.90;6.97;;;;;;;8.15;70.48;101226.97;5089148;28;20019;-26
2022/10/29 03:47:27;;;;;;;15.20;7.07;;;;;;;8.08;70.41;101234.00;5088919;28;20047;-27
2022/10/29 03:49:53;;;;;;;17.08;7.60;;;;;;;7.99;70.08;101218.09;5088976;28;20027;-26
2022/10/29 03:52:18;;;;;;;14.98;9.23;;;;;;;8.02;69.25;101222.22;5088468;28;20031;-27
2022/10/29 03:54:44;;;;;;;17.40;7.43;;;;;;;7.76;70.31;101196.75;5088772;28;20479;-26
2022/10/29 03:57:09;;;;;;;12.88;7.88;;;;;;;7.79;70.82;101217.69;5088839;28;20032;-27
2022/10/29 03:59:34;;;;;;;12.00;7.82;;;;;;;7.79;70.36;101211.53;5088762;28;20816;-27
2022/10/29 04:02:00;;;;;;;13.50;7.65;;;;;;;7.36;71.74;101198.56;5089006;28;20446;-25
2022/10/29 04:04:25;;;;;;;13.93;7.93;;;;;;;7.37;71.95;101208.19;5088245;28;20028;-28
2022/10/29 04:06:51;;;;;;;16.10;9.75;;;;;;;7.63;71.11;101213.25;5088259;28;20059;-29
2022/10/29 04:09:16;;;;;;;18.10;11.65;;;;;;;7.54;71.67;101208.97;5088400;28;20626;-27
2022/10/29 04:11:42;;;;;;;16.45;10.45;;;;;;;7.28;72.86;101203.91;5088814;28;20024;-26
2022/10/29 04:14:08;;;;;;;17.10;11.55;;;;;;;7.00;74.19;101211.41;5088644;28;20026;-28
2022/10/29 04:16:33;;;;;;;14.98;10.38;;;;;;;7.39;73.39;101205.38;5088637;28;20492;-26
2022/10/29 04:18:59;;;;;;;17.85;10.70;;;;;;;7.51;72.87;101214.63;5088291;28;20031;-28
2022/10/29 04:21:24;;;;;;;17.23;8.95;;;;;;;7.48;72.53;101207.00;5088219;28;20040;-26
2022/10/29 04:23:50;;;;;;;28.33;9.30;;;;;;;7.49;72.68;101199.88;5088737;28;20031;-27
2022/10/29 04:26:16;;;;;;;11.90;8.32;;;;;;;7.20;72.17;101186.16;5088338;28;20108;-34
2022/10/29 04:28:41;;;;;;;13.32;9.20;;;;;;;6.97;73.75;101209.91;5088478;28;20501;-30
2022/10/29 04:31:10;;;;;;;17.77;10.18;;;;;;;6.97;74.46;101204.63;5088154;28;20536;-27
2022/10/29 04:33:35;;;;;;;13.43;9.05;;;;;;;7.26;73.59;101202.44;5088225;28;20039;-27
2022/10/29 04:36:01;;;;;;;13.80;9.25;;;;;;;7.42;72.90;101215.66;5088059;28;20036;-27
2022/10/29 04:38:26;;;;;;;18.10;9.35;;;;;;;7.32;72.18;101194.59;5087976;28;20100;-27
2022/10/29 04:40:52;;;;;;;12.25;6.95;;;;;;;7.19;72.89;101215.50;5088178;28;20039;-29
2022/10/29 04:43:17;;;;;;;12.73;7.07;;;;;;;6.69;74.99;101204.13;5088162;28;20752;-26
2022/10/29 04:45:43;;;;;;;11.23;6.82;;;;;;;6.80;75.30;101219.72;5086713;28;20024;-26
2022/10/29 04:48:08;;;;;;;12.75;7.07;;;;;;;6.82;75.95;101225.69;5086503;28;20059;-27
2022/10/29 04:50:36;;;;;;;13.13;8.20;;;;;;;6.90;75.50;101210.75;5087675;28;20479;-26
2022/10/29 04:53:04;;;;;;;12.43;6.28;;;;;;;6.96;75.96;101216.19;5087856;28;20080;-31
2022/10/29 04:55:30;;;;;;;14.10;7.60;;;;;;;6.96;75.20;101194.16;5088256;28;20059;-26
2022/10/29 04:57:56;;;;;;;13.88;7.63;;;;;;;7.02;75.65;101220.84;5069274;28;20483;-27
2022/10/29 05:00:22;;;;;;;11.98;6.20;;;;;;;7.38;74.44;101219.66;5087517;28;20117;-26
2022/10/29 05:02:51;;;;;;;14.52;6.55;;;;;;;7.53;74.28;101220.59;5087632;28;20062;-26
2022/10/29 05:05:18;;;;;;;13.05;6.32;;;;;;;7.59;74.01;101216.44;5087338;28;20052;-28
2022/10/29 05:07:44;;;;;;;9.73;6.10;;;;;;;7.55;74.91;101221.25;5087796;28;20035;-27
2022/10/29 05:10:10;;;;;;;10.88;5.65;;;;;;;7.53;75.14;101222.41;5087589;28;20035;-26
2022/10/29 05:12:36;;;;;;;12.05;6.53;;;;;;;7.69;74.13;101213.56;5087473;28;20024;-28
2022/10/29 05:15:02;;;;;;;11.38;6.40;;;;;;;7.65;74.61;101221.06;5087809;28;20047;-29
2022/10/29 05:17:27;;;;;;;13.48;6.45;;;;;;;7.89;73.95;101225.44;5087476;28;20042;-31
2022/10/29 05:19:53;;;;;;;13.23;6.88;;;;;;;7.73;74.66;101217.53;5087058;28;20036;-26
2022/10/29 05:22:18;;;;;;;10.45;6.93;;;;;;;7.92;74.11;101214.47;5087659;28;20024;-25
2022/10/29 05:24:44;;;;;;;12.68;7.47;;;;;;;7.93;74.73;101237.38;5087486;28;20457;-25
2022/10/29 05:27:09;;;;;;;20.27;9.95;;;;;;;8.23;73.39;101243.72;5087345;28;20027;-26
2022/10/29 05:29:34;;;;;;;13.85;8.32;;;;;;;8.24;73.47;101228.59;5087240;28;20064;-26
2022/10/29 05:32:00;;;;;;;15.95;7.95;;;;;;;8.23;74.00;101242.88;5085645;28;20034;-27
2022/10/29 05:34:25;;;;;;;16.38;8.00;;;;;;;8.13;74.66;101228.97;5068659;28;20039;-28
2022/10/29 05:36:50;;;;;;;20.80;8.63;;;;;;;8.58;73.64;101248.66;5087095;28;20516;-26
2022/10/29 05:39:16;;;;;;;22.13;10.43;;;;;;;8.79;73.46;101235.56;5087327;28;20039;-27
2022/10/29 05:41:42;;;;;;;27.13;10.68;;;;;;;8.89;73.78;101245.13;5087406;28;20385;-29
2022/10/29 05:44:07;;;;;;;22.77;10.63;;;;;;;8.81;74.40;101241.53;5087097;28;20075;-30
2022/10/29 05:46:32;;;;;;;25.85;10.27;;;;;;;8.74;75.48;101245.88;5068511;28;20484;-26
2022/10/29 05:48:58;;;;;;;29.83;11.70;;;;;;;8.65;76.11;101236.34;5086911;28;20032;-27
2022/10/29 05:51:23;;;;;;;34.35;12.93;;;;;;;8.92;77.06;101255.41;5087193;28;20407;-30
2022/10/29 05:53:49;;;;;;;74.70;30.70;;;;;;;8.97;77.96;101253.88;5068856;28;20480;-26
2022/10/29 05:56:15;;;;;;;40.15;16.13;;;;;;;8.67;79.85;101255.59;5068754;28;20032;-26
2022/10/29 05:58:40;;;;;;;52.53;19.55;;;;;;;8.93;80.12;101251.72;5086808;28;20036;-25
2022/10/29 06:01:09;;;;;;;50.72;17.42;;;;;;;9.02;79.63;101248.84;5090020;28;20028;-26
2022/10/29 06:03:36;;;;;;;61.83;22.42;;;;;;;8.97;80.81;101258.34;5072383;28;20411;-27
2022/10/29 06:06:01;;;;;;;63.03;24.38;;;;;;;9.13;80.90;101266.19;5090841;28;20055;-28
2022/10/29 06:08:26;;;;;;;54.75;20.20;;;;;;;9.22;80.76;101254.47;5089046;28;20032;-26
2022/10/29 06:10:52;;;;;;;49.25;18.23;;;;;;;9.38;80.95;101276.66;5091070;28;20035;-27
2022/10/29 06:13:20;;;;;;;51.25;18.50;;;;;;;9.47;80.96;101275.53;5090726;28;20028;-25
2022/10/29 06:15:47;;;;;;;55.55;16.40;;;;;;;9.37;82.02;101275.78;5090530;28;20031;-25
2022/10/29 06:18:13;;;;;;;68.72;21.98;;;;;;;9.58;81.75;101283.09;5090698;28;20035;-27
2022/10/29 06:20:39;;;;;;;104.00;40.55;;;;;;;9.57;82.49;101273.44;5090392;28;20036;-29
2022/10/29 06:23:04;;;;;;;83.65;29.15;;;;;;;9.39;83.48;101272.97;5090745;28;20052;-29
2022/10/29 06:25:30;;;;;;;67.05;21.65;;;;;;;9.39;83.67;101257.00;5090451;28;20024;-29
2022/10/29 06:28:08;;;;;;;66.53;21.70;;;;;;;9.44;85.35;101281.25;5090546;28;20101;-27
2022/10/29 06:30:34;;;;;;;;;;;;;;;9.50;85.66;101277.84;5090507;28;20027;-28
2022/10/29 06:33:01;;;;;;;68.50;23.58;;;;;;;9.56;85.76;101269.13;5090628;28;19961;-26
2022/10/29 06:35:26;;;;;;;65.65;22.23;;;;;;;9.63;85.37;101275.38;5090494;28;20028;-27
2022/10/29 06:37:52;;;;;;;73.43;25.42;;;;;;;9.86;85.19;101269.13;5072152;28;20039;-26
2022/10/29 06:40:18;;;;;;;74.05;21.83;;;;;;;9.85;84.87;101251.50;5090186;28;20028;-26
2022/10/29 06:42:43;;;;;;;75.00;23.15;;;;;;;9.65;85.66;101261.88;5090074;28;20032;-26
2022/10/29 06:45:09;;;;;;;72.22;22.85;;;;;;;10.22;84.33;101279.03;5071861;28;20665;-28
2022/10/29 06:47:42;;;;;;;73.50;24.08;;;;;;;10.18;84.54;101283.06;5090299;28;20110;-28
2022/10/29 06:50:09;;;;;;;71.18;28.05;;;;;;;10.19;84.80;101268.72;5071893;28;20028;-27
2022/10/29 06:52:35;;;;;;;103.30;42.10;;;;;;;10.69;82.20;101285.72;5089740;28;20054;-27
2022/10/29 06:55:01;;;;;;;60.72;23.58;;;;;;;10.55;81.35;101268.75;5089864;28;20045;-27
2022/10/29 06:57:28;;;;;;;49.42;19.52;;;;;;;10.59;80.50;101279.88;5089954;28;20032;-28
2022/10/29 06:59:53;;;;;;;58.15;24.08;;;;;;;10.52;81.63;101276.31;5071794;28;20023;-26
2022/10/29 07:02:20;;;;;;;59.40;19.05;;;;;;;10.65;82.47;101273.78;5089544;28;20465;-27
2022/10/29 07:04:45;;;;;;;45.03;18.48;;;;;;;10.85;80.56;101268.66;5089503;28;20093;-27
2022/10/29 07:07:11;;;;;;;49.28;22.02;;;;;;;10.91;79.90;101280.38;5089844;28;20020;-26
2022/10/29 07:09:36;;;;;;;46.65;19.05;;;;;;;11.24;78.86;101273.50;5089681;28;20484;-26
2022/10/29 07:12:02;;;;;;;46.60;21.00;;;;;;;11.39;78.40;101261.91;5088462;28;20028;-27
2022/10/29 07:14:27;;;;;;;43.28;17.15;;;;;;;11.55;76.82;101264.25;5089784;28;20547;-28
2022/10/29 07:16:52;;;;;;;35.92;16.10;;;;;;;11.62;74.98;101267.78;5089768;28;20016;-27
2022/10/29 07:19:18;;;;;;;36.97;13.90;;;;;;;11.22;75.35;101256.03;5089500;28;20449;-26
2022/10/29 07:21:43;;;;;;;27.52;14.32;;;;;;;11.57;73.56;101267.56;5089626;28;20487;-26
2022/10/29 07:24:09;;;;;;;26.40;12.70;;;;;;;11.50;73.74;101265.88;5087839;28;20449;-32
2022/10/29 07:26:35;;;;;;;27.70;13.57;;;;;;;11.47;73.63;101245.72;5089135;28;20831;-28
2022/10/29 07:29:01;;;;;;;32.13;15.15;;;;;;;11.76;72.83;101260.69;5089045;28;20038;-27
2022/10/29 07:31:28;;;;;;;25.83;13.05;;;;;;;11.97;70.72;101273.19;5089110;28;20028;-26
2022/10/29 07:33:54;;;;;;;26.60;12.77;;;;;;;11.82;72.17;101272.44;5070945;28;20754;-26
2022/10/29 07:36:19;;;;;;;32.58;14.95;;;;;;;11.96;71.04;101255.47;5088732;28;20028;-26
2022/10/29 07:38:45;;;;;;;32.20;15.95;;;;;;;12.29;69.36;101262.81;5089119;28;20030;-26
2022/10/29 07:41:11;;;;;;;26.65;12.85;;;;;;;12.41;67.78;101257.69;5088707;28;20028;-27
2022/10/29 07:43:36;;;;;;;41.20;21.38;;;;;;;12.80;66.67;101264.97;5088666;28;20030;-26
2022/10/29 07:46:02;;;;;;;23.65;12.70;;;;;;;13.18;65.44;101268.94;5087434;28;20028;-28
2022/10/29 07:48:27;;;;;;;23.52;12.27;;;;;;;13.23;64.72;101253.84;5088761;28;20165;-27
2022/10/29 07:50:53;;;;;;;22.90;11.75;;;;;;;13.56;63.71;101255.69;5088639;28;20035;-27
2022/10/29 07:53:18;;;;;;;18.98;11.38;;;;;;;13.60;63.23;101256.09;5087067;28;20162;-29
2022/10/29 07:55:50;;;;;;;18.77;10.27;;;;;;;13.73;61.87;101236.47;5088582;28;20028;-27
2022/10/29 07:58:15;;;;;;;21.10;10.57;;;;;;;13.91;59.96;101241.97;5088418;28;20028;-28
2022/10/29 08:00:41;;;;;;;18.15;10.10;;;;;;;14.14;59.97;101256.75;5088601;28;20028;-29
2022/10/29 08:03:07;;;;;;;14.55;9.35;;;;;;;14.08;58.98;101231.63;5088495;28;20028;-27
2022/10/29 08:05:33;;;;;;;17.48;10.38;;;;;;;14.43;58.79;101266.94;5088453;28;20044;-27
2022/10/29 08:07:58;;;;;;;19.02;10.80;;;;;;;14.53;58.05;101255.72;5069868;28;20028;-29
2022/10/29 08:10:24;;;;;;;16.30;9.68;;;;;;;14.36;57.38;101244.66;5088074;28;20024;-28
2022/10/29 08:12:50;;;;;;;19.58;10.55;;;;;;;14.47;57.86;101252.03;5088546;28;20102;-29
2022/10/29 08:15:16;;;;;;;18.38;9.52;;;;;;;14.71;57.35;101254.19;5070133;28;20409;-28
2022/10/29 08:17:42;;;;;;;13.63;9.23;;;;;;;14.63;56.81;101244.56;5088308;28;20064;-27
2022/10/29 08:20:08;;;;;;;14.60;8.07;;;;;;;14.85;55.38;101248.53;5087711;28;20036;-30
2022/10/29 08:22:33;;;;;;;11.27;7.45;;;;;;;14.88;55.93;101249.13;5087876;28;20028;-27
2022/10/29 08:24:58;;;;;;;14.65;9.15;;;;;;;14.96;55.35;101222.00;5087751;28;20047;-28
2022/10/29 08:27:24;;;;;;;15.00;7.88;;;;;;;15.21;55.37;101235.41;5087758;28;20510;-29
2022/10/29 08:29:49;;;;;;;11.65;6.75;;;;;;;15.34;54.23;101239.84;5087810;28;20038;-31
2022/10/29 08:32:15;;;;;;;10.48;6.45;;;;;;;15.16;54.75;101224.50;5086789;28;20020;-27
2022/10/29 08:34:40;;;;;;;11.38;6.60;;;;;;;15.56;54.21;101233.00;5088223;28;20027;-28
2022/10/29 08:37:05;;;;;;;11.02;5.75;;;;;;;15.52;54.01;101221.03;5087747;28;20024;-29
2022/10/29 08:39:31;;;;;;;8.60;5.70;;;;;;;15.86;52.94;101229.59;5087846;28;20024;-26
2022/10/29 08:42:06;;;;;;;11.60;6.32;;;;;;;15.90;52.61;101233.47;5069216;28;20036;-27
2022/10/29 08:44:58;;;;;;;10.55;5.97;;;;;;;16.02;51.80;101228.16;5088052;28;20140;-27
2022/10/29 08:47:24;;;;;;;10.15;6.40;;;;;;;16.11;51.58;101225.97;5060144;28;20039;-26
2022/10/29 08:49:58;;;;;;;10.75;5.55;;;;;;;16.31;51.18;101223.03;5069012;28;20036;-29
2022/10/29 08:52:29;;;;;;;11.48;5.93;;;;;;;16.34;50.72;101222.53;5087460;28;20107;-27
2022/10/29 08:55:17;;;;;;;10.55;6.43;;;;;;;16.56;50.95;101222.84;5087546;28;20513;-27
2022/10/29 08:58:08;;;;;;;11.15;7.05;;;;;;;16.63;50.06;101220.88;5087529;28;20039;-26
2022/10/29 09:00:37;;;;;;;14.13;10.80;;;;;;;16.84;49.24;101217.66;5086444;28;20031;-27
2022/10/29 09:03:09;;;;;;;13.27;8.80;;;;;;;17.03;49.28;101214.88;5087468;28;20031;-29
2022/10/29 09:05:44;;;;;;;11.88;6.45;;;;;;;17.29;49.37;101208.19;5087226;28;20056;-27
2022/10/29 09:08:44;;;;;;;12.80;8.75;;;;;;;17.48;48.36;101200.78;5087209;28;20056;-28
2022/10/29 09:11:22;;;;;;;14.30;7.65;;;;;;;17.42;48.27;101207.13;5004474;28;20153;-28
2022/10/29 09:14:27;;;;;;;11.23;7.72;;;;;;;17.86;48.44;101196.75;5076325;28;20043;-30
2022/10/29 09:17:35;;;;;;;10.05;5.85;;;;;;;18.16;47.17;101198.38;5085879;28;20050;-30
2022/10/29 09:20:25;;;;;;;12.93;7.45;;;;;;;18.11;46.32;101179.41;5087169;28;20024;-27
2022/10/29 09:23:22;;;;;;;13.40;6.80;;;;;;;18.17;46.75;101183.84;5087062;28;20031;-27
2022/10/29 09:26:09;;;;;;;12.07;6.80;;;;;;;17.90;46.53;101170.94;5082830;28;20849;-27
2022/10/29 09:29:05;;;;;;;10.60;6.80;;;;;;;18.30;46.42;101191.63;5069382;28;20040;-28
2022/10/29 09:31:49;;;;;;;10.50;6.68;;;;;;;18.39;47.29;101178.56;5086818;28;20066;-26
2022/10/29 09:34:33;;;;;;;17.60;7.75;;;;;;;18.58;45.59;101182.66;5086141;28;20035;-31
2022/10/29 09:36:59;;;;;;;12.10;6.75;;;;;;;18.82;46.33;101171.72;5068690;28;20032;-29
2022/10/29 09:39:34;;;;;;;11.13;6.90;;;;;;;19.23;44.95;101178.53;5086761;28;20024;-30
2022/10/29 09:42:01;;;;;;;15.98;7.35;;;;;;;19.33;43.66;101172.47;5086745;28;20089;-27
2022/10/29 09:44:39;;;;;;;13.20;7.00;;;;;;;18.93;44.19;101173.50;5086328;28;20021;-27
2022/10/29 09:47:33;;;;;;;12.50;6.35;;;;;;;19.42;44.90;101164.72;5086969;28;20035;-28
2022/10/29 09:50:27;;;;;;;11.27;6.68;;;;;;;19.52;42.82;101147.81;5086645;28;20024;-30
2022/10/29 09:52:52;;;;;;;12.07;6.72;;;;;;;19.56;42.75;101138.91;5071619;28;20046;-28
2022/10/29 09:55:28;;;;;;;10.13;6.63;;;;;;;19.76;42.38;101149.19;5086827;28;20093;-29
2022/10/29 09:57:56;;;;;;;11.07;6.53;;;;;;;19.94;42.70;101142.63;5086472;28;20501;-27
2022/10/29 10:00:29;;;;;;;11.60;6.32;;;;;;;20.55;41.32;101138.81;5086593;28;20043;-29
2022/10/29 10:03:07;;;;;;;12.68;6.85;;;;;;;20.09;41.98;101151.97;5086471;28;20028;-27
2022/10/29 10:05:35;;;;;;;10.43;6.13;;;;;;;20.02;41.79;101131.34;5086568;28;20488;-29
2022/10/29 10:08:06;;;;;;;11.73;6.20;;;;;;;20.66;40.63;101135.16;5086655;28;20043;-27
2022/10/29 10:10:34;;;;;;;11.65;5.85;;;;;;;20.86;39.75;101135.28;5086424;28;20028;-29
2022/10/29 10:13:02;;;;;;;12.25;5.88;;;;;;;20.44;40.45;101106.22;5086484;28;20103;-27
2022/10/29 10:15:31;;;;;;;12.10;6.05;;;;;;;20.56;40.58;101124.22;5086418;28;20047;-27
2022/10/29 10:18:01;;;;;;;16.40;6.20;;;;;;;20.53;40.04;101103.03;5086253;28;20036;-26
2022/10/29 10:20:27;;;;;;;10.80;5.35;;;;;;;20.97;40.80;101113.66;5086368;28;20031;-28
2022/10/29 10:22:52;;;;;;;12.23;6.05;;;;;;;21.49;39.27;101110.09;5086237;28;20028;-32
2022/10/29 10:25:36;;;;;;;14.60;4.97;;;;;;;21.43;38.32;101078.59;5086495;28;20460;-27
2022/10/29 10:28:22;;;;;;;9.30;4.45;;;;;;;21.50;37.73;101098.19;5085970;28;20024;-29
2022/10/29 10:31:03;;;;;;;14.98;5.22;;;;;;;21.66;37.55;101097.13;5085551;28;20072;-28
2022/10/29 10:33:30;;;;;;;11.00;5.40;;;;;;;21.60;37.69;101092.78;5086263;28;20056;-27
2022/10/29 10:36:01;;;;;;;10.30;4.67;;;;;;;22.02;36.86;101077.38;5067948;28;20081;-30
2022/10/29 10:38:27;;;;;;;12.32;5.40;;;;;;;22.13;36.86;101075.47;5085915;28;20753;-29
2022/10/29 10:41:00;;;;;;;9.25;4.30;;;;;;;22.29;36.44;101057.28;5086320;28;20016;-30
2022/10/29 10:43:25;;;;;;;9.85;5.05;;;;;;;21.76;36.77;101071.09;5067763;28;20028;-32
2022/10/29 10:45:58;;;;;;;8.68;4.40;;;;;;;22.20;35.77;101059.72;5086851;28;20063;-28
2022/10/29 10:48:26;;;;;;;13.35;5.03;;;;;;;22.37;35.58;101070.31;5071191;28;20042;-27
2022/10/29 10:51:09;;;;;;;12.50;4.43;;;;;;;22.14;36.05;101052.66;5089416;28;20051;-30
2022/10/29 10:53:34;;;;;;;12.20;4.55;;;;;;;22.72;36.02;101061.31;5089600;28;20030;-26
2022/10/29 10:56:00;;;;;;;12.95;4.50;;;;;;;23.03;34.73;101047.63;5089889;28;20024;-32
2022/10/29 10:58:29;;;;;;;13.55;5.30;;;;;;;23.30;34.26;101043.69;5089400;28;20430;-28
2022/10/29 11:01:01;;;;;;;9.35;4.30;;;;;;;23.52;33.73;101052.28;5089660;28;20067;-28
2022/10/29 11:03:34;;;;;;;8.45;3.83;;;;;;;23.20;34.53;101045.38;5089325;28;20043;-27
2022/10/29 11:06:07;;;;;;;8.57;4.13;;;;;;;23.44;34.26;101031.91;5089194;28;20040;-27
2022/10/29 11:09:02;;;;;;;10.30;4.25;;;;;;;23.78;33.03;101043.97;5088958;28;20032;-28
2022/10/29 11:11:33;;;;;;;6.88;3.70;;;;;;;24.30;32.68;101028.81;5071874;28;20042;-30
2022/10/29 11:14:04;;;;;;;7.53;3.67;;;;;;;24.63;31.46;101020.84;5088902;28;20721;-29
2022/10/29 11:16:42;;;;;;;5.45;3.40;;;;;;;24.45;31.18;101036.81;5088973;28;20031;-28
2022/10/29 11:19:27;;;;;;;6.85;3.83;;;;;;;24.22;32.17;101010.34;5088768;28;20051;-29
2022/10/29 11:22:11;;;;;;;5.95;3.33;;;;;;;24.29;32.05;101024.44;5088657;28;20035;-28
2022/10/29 11:24:58;;;;;;;6.10;3.20;;;;;;;25.01;30.27;101018.25;5088889;28;20036;-28
2022/10/29 11:27:45;;;;;;;6.35;3.60;;;;;;;25.14;29.88;101012.03;5089099;28;20511;-29
2022/10/29 11:30:14;;;;;;;6.95;3.42;;;;;;;25.12;30.11;101008.78;5067014;28;20040;-32
2022/10/29 11:33:15;;;;;;;8.88;2.80;;;;;;;24.45;30.78;101020.47;5068315;28;20548;-29